Pagosa Springs, Colorado
Current Conditions -  °F | °C
As of 6:35 AM on Friday 28 Nov 2014 (Local Time) from KPSO Reporting Station
Clear Clear  
Wind Chill: 24°   Ceiling: Unl
Heat Index: 24°   Visibility: 10mi
Dew Point: 18°   Wind: 0mph
Humidity: 80%   Direction: NA
Pressure: 30.32"   Gusts: NA
Location:  37.27°N, 107.02°W
Report Text: KPSO 281335Z AUTO 00000KT 10SM CLR M05/M08 A3032 RMK AO2 T10461076
Loading
Personal Weather Stations






























Interactive Weather Map New forecast layout! Learn more

10-Day Weather Forecast

Advertisements
Track Severe Weather on mobile